Kuandian, China
Current Conditions -  °F | °C
As of 6:30 AM on Friday 19 Dec 2014 (Local Time) from ZYTX Reporting Station
Clear Clear  
Wind Chill: 21°   Ceiling: Unl
Heat Index: 30°   Visibility: 6mi
Dew Point: 21°   Wind: 11mph
Humidity: 69%   Direction: 160°SSE
Pressure: 30.15"   Gusts: NA
Location:  40.73°N, 124.78°E
Report Text: ZYTX 182230Z 16005MPS CAVOK M01/M06 Q1021 NOSIG
Loading
Personal Weather Stations






























Interactive Weather Map New forecast layout! Learn more

10-Day Weather Forecast

Advertisements
Track Severe Weather on mobile